createdAt,value
2022-08-08T00:00:53.279Z,102096.94
2022-08-08T00:03:20.088Z,102091.84
2022-08-08T00:06:43.562Z,102090.19
2022-08-08T00:09:56.737Z,102083.31
2022-08-08T00:13:10.007Z,102084.69
2022-08-08T00:16:27.637Z,102090.72
2022-08-08T00:19:35.513Z,102091.44
2022-08-08T00:22:43.817Z,102086.28
2022-08-08T00:25:51.259Z,102080.63
2022-08-08T00:29:02.391Z,102081.94
2022-08-08T00:32:21.475Z,102080.22
2022-08-08T00:35:48.068Z,102084.06
2022-08-08T00:39:36.047Z,102081.56
2022-08-08T00:43:19.545Z,102082.00
2022-08-08T00:46:55.819Z,102078.06
2022-08-08T00:50:52.290Z,102077.09
2022-08-08T00:54:31.772Z,102078.69
2022-08-08T00:58:21.339Z,102083.03
2022-08-08T01:01:38.354Z,102075.84
2022-08-08T01:05:58.929Z,102081.78
2022-08-08T01:09:35.807Z,102080.06
2022-08-08T01:13:04.936Z,102076.44
2022-08-08T01:16:37.981Z,102079.91
2022-08-08T01:20:21.945Z,102073.16
2022-08-08T01:24:16.391Z,102073.56
2022-08-08T01:28:02.269Z,102071.97
2022-08-08T01:32:15.318Z,102075.34
2022-08-08T01:35:53.394Z,102088.31
2022-08-08T01:39:24.162Z,102102.69
2022-08-08T01:42:36.759Z,102100.19
2022-08-08T01:45:59.339Z,102098.66
2022-08-08T01:49:10.746Z,102091.78
2022-08-08T01:52:53.011Z,102089.06
2022-08-08T01:56:29.612Z,102087.78
2022-08-08T02:00:03.115Z,102096.78
2022-08-08T02:03:55.090Z,102095.00
2022-08-08T02:06:55.474Z,102096.66
2022-08-08T02:10:30.234Z,102093.50
2022-08-08T02:13:54.850Z,102096.19
2022-08-08T02:17:04.257Z,102096.66
2022-08-08T02:21:00.011Z,102089.06
2022-08-08T02:23:48.983Z,102093.13
2022-08-08T02:27:03.574Z,102095.28
2022-08-08T02:30:21.263Z,102092.84
2022-08-08T02:34:00.394Z,102097.59
2022-08-08T02:37:52.066Z,102087.38
2022-08-08T02:41:17.803Z,102086.75
2022-08-08T02:45:01.838Z,102085.91
2022-08-08T02:48:37.011Z,102082.16
2022-08-08T02:52:00.360Z,102089.09
2022-08-08T02:55:23.713Z,102094.44
2022-08-08T02:59:17.182Z,102092.41
2022-08-08T03:05:00.498Z,102089.75
2022-08-08T03:07:41.729Z,102085.91
2022-08-08T03:12:03.059Z,102091.84
2022-08-08T03:15:57.089Z,102092.28
2022-08-08T03:19:22.621Z,102098.19
2022-08-08T03:22:38.853Z,102095.00
2022-08-08T03:25:46.513Z,102097.34
2022-08-08T03:28:59.999Z,102108.16
2022-08-08T03:32:28.985Z,102100.94
2022-08-08T03:35:38.959Z,102104.25
2022-08-08T03:38:55.716Z,102103.25
2022-08-08T03:42:27.229Z,102108.34
2022-08-08T03:46:03.230Z,102103.91
2022-08-08T03:49:38.197Z,102105.69
2022-08-08T03:52:19.054Z,102108.16
2022-08-08T03:55:55.957Z,102108.75
2022-08-08T03:58:51.618Z,102109.22
2022-08-08T04:02:13.066Z,102122.25
2022-08-08T04:05:19.526Z,102119.34
2022-08-08T04:08:33.629Z,102123.47
2022-08-08T04:11:58.602Z,102124.00
2022-08-08T04:15:06.371Z,102112.44
2022-08-08T04:18:17.107Z,102129.56
2022-08-08T04:21:22.997Z,102125.19
2022-08-08T04:24:28.619Z,102123.91
2022-08-08T04:28:01.409Z,102129.09
2022-08-08T04:30:57.596Z,102125.38
2022-08-08T04:34:00.369Z,102129.59
2022-08-08T04:37:03.864Z,102124.22
2022-08-08T04:40:10.713Z,102125.25
2022-08-08T04:43:16.451Z,102120.56
2022-08-08T04:46:21.327Z,102130.03
2022-08-08T04:49:28.961Z,102123.69
2022-08-08T04:53:00.591Z,102124.31
2022-08-08T04:56:07.912Z,102131.06
2022-08-08T04:59:10.731Z,102124.66
2022-08-08T05:02:14.903Z,102123.59
2022-08-08T05:05:44.685Z,102129.53
2022-08-08T05:08:51.363Z,102128.22
2022-08-08T05:11:57.262Z,102134.00
2022-08-08T05:14:59.979Z,102130.13
2022-08-08T05:18:07.114Z,102128.00
2022-08-08T05:21:10.826Z,102127.75
2022-08-08T05:24:17.896Z,102133.97
2022-08-08T05:27:25.164Z,102147.91
2022-08-08T05:30:28.577Z,102149.94
2022-08-08T05:33:43.950Z,102144.38
2022-08-08T05:36:54.028Z,102147.28
2022-08-08T05:40:04.803Z,102147.53
2022-08-08T05:43:38.555Z,102150.91
2022-08-08T05:46:33.801Z,102159.25
2022-08-08T05:49:38.905Z,102155.25
2022-08-08T05:52:57.783Z,102160.28
2022-08-08T05:56:21.120Z,102163.06
2022-08-08T06:00:00.335Z,102158.94
2022-08-08T06:03:06.664Z,102164.59
2022-08-08T06:06:11.026Z,102164.09
2022-08-08T06:09:58.448Z,102171.13
2022-08-08T06:12:49.016Z,102171.44
2022-08-08T06:15:55.809Z,102174.13
2022-08-08T06:19:01.975Z,102173.00
2022-08-08T06:26:34.734Z,102175.78
2022-08-08T06:29:02.471Z,102180.78
2022-08-08T06:32:15.018Z,102180.66
2022-08-08T06:36:06.567Z,102190.41
2022-08-08T06:38:47.819Z,102184.41
2022-08-08T06:41:56.701Z,102192.41
2022-08-08T06:45:00.841Z,102195.50
2022-08-08T06:48:08.674Z,102204.28
2022-08-08T06:51:15.811Z,102206.28
2022-08-08T06:54:20.584Z,102208.06
2022-08-08T06:57:25.010Z,102207.25
2022-08-08T07:00:35.909Z,102199.00
2022-08-08T07:04:39.499Z,102197.16
2022-08-08T07:07:23.508Z,102201.06
2022-08-08T07:10:36.271Z,102194.84
2022-08-08T07:13:59.907Z,102197.81
2022-08-08T07:17:08.921Z,102197.75
2022-08-08T07:20:18.800Z,102195.88
2022-08-08T07:23:25.236Z,102198.56
2022-08-08T07:26:35.489Z,102198.56
2022-08-08T07:30:02.196Z,102197.75
2022-08-08T07:33:01.982Z,102205.19
2022-08-08T07:36:08.249Z,102205.50
2022-08-08T07:39:13.308Z,102197.94
2022-08-08T07:42:19.137Z,102200.88
2022-08-08T07:45:34.438Z,102210.63
2022-08-08T07:48:51.298Z,102204.59
2022-08-08T07:51:54.254Z,102206.81
2022-08-08T07:55:03.980Z,102213.22
2022-08-08T07:58:17.590Z,102216.50
2022-08-08T08:01:27.077Z,102217.34
2022-08-08T08:04:52.388Z,102217.75
2022-08-08T08:07:57.345Z,102221.78
2022-08-08T08:11:02.626Z,102224.78
2022-08-08T08:14:10.666Z,102220.59
2022-08-08T08:17:18.825Z,102225.13
2022-08-08T08:20:29.616Z,102221.44
2022-08-08T08:23:40.880Z,102221.63
2022-08-08T08:26:52.494Z,102226.22
2022-08-08T08:29:58.680Z,102230.13
2022-08-08T08:33:01.266Z,102224.19
2022-08-08T08:36:19.042Z,102226.72
2022-08-08T08:39:23.898Z,102218.31
2022-08-08T08:42:31.571Z,102233.75
2022-08-08T08:45:40.963Z,102238.84
2022-08-08T08:48:49.596Z,102235.75
2022-08-08T08:51:54.666Z,102233.16
2022-08-08T08:55:01.602Z,102243.69
2022-08-08T08:58:05.079Z,102242.34
2022-08-08T09:01:14.903Z,102252.22
2022-08-08T09:04:31.626Z,102245.09
2022-08-08T09:07:52.310Z,102244.50
2022-08-08T09:11:06.189Z,102252.81
2022-08-08T09:14:10.040Z,102249.78
2022-08-08T09:17:18.743Z,102242.97
2022-08-08T09:22:02.947Z,102244.53
2022-08-08T09:23:46.311Z,102241.06
2022-08-08T09:27:00.453Z,102236.66
2022-08-08T09:30:08.504Z,102229.81
2022-08-08T09:34:15.160Z,102230.47
2022-08-08T09:36:51.653Z,102232.50
2022-08-08T09:40:11.199Z,102229.28
2022-08-08T09:43:24.016Z,102226.19
2022-08-08T09:46:45.097Z,102222.06
2022-08-08T09:49:51.554Z,102230.09
2022-08-08T09:53:00.894Z,102227.50
2022-08-08T09:56:12.600Z,102228.56
2022-08-08T10:00:01.749Z,102224.44
2022-08-08T10:02:53.674Z,102231.19
2022-08-08T10:05:57.674Z,102220.84
2022-08-08T10:09:00.677Z,102221.78
2022-08-08T10:12:26.084Z,102223.56
2022-08-08T10:15:29.358Z,102220.38
2022-08-08T10:18:34.264Z,102229.38
2022-08-08T10:21:42.261Z,102220.69
2022-08-08T10:25:00.084Z,102220.75
2022-08-08T10:28:04.864Z,102229.91
2022-08-08T10:31:47.526Z,102223.69
2022-08-08T10:34:57.071Z,102218.66
2022-08-08T10:38:08.251Z,102215.38
2022-08-08T10:41:20.109Z,102218.34
2022-08-08T10:44:30.652Z,102210.56
2022-08-08T10:47:43.746Z,102210.91
2022-08-08T10:50:51.402Z,102220.94
2022-08-08T10:53:59.122Z,102223.41
2022-08-08T10:57:04.480Z,102225.31
2022-08-08T11:00:12.262Z,102219.34
2022-08-08T11:03:17.973Z,102215.16
2022-08-08T11:06:20.690Z,102221.16
2022-08-08T11:09:24.740Z,102215.28
2022-08-08T11:12:28.811Z,102219.91
2022-08-08T11:15:31.838Z,102214.94
2022-08-08T11:18:35.564Z,102216.81
2022-08-08T11:21:45.207Z,102218.41
2022-08-08T11:25:03.125Z,102213.81
2022-08-08T11:28:24.901Z,102219.16
2022-08-08T11:31:43.234Z,102221.91
2022-08-08T11:35:10.491Z,102218.06
2022-08-08T11:38:36.115Z,102227.47
2022-08-08T11:41:45.031Z,102223.59
2022-08-08T11:44:49.192Z,102225.69
2022-08-08T11:48:02.495Z,102224.13
2022-08-08T11:51:30.054Z,102221.38
2022-08-08T11:54:33.868Z,102216.63
2022-08-08T11:57:38.907Z,102221.50
2022-08-08T12:00:45.378Z,102225.28
2022-08-08T12:03:53.941Z,102225.03
2022-08-08T12:07:04.888Z,102223.34
2022-08-08T12:10:18.711Z,102226.47
2022-08-08T12:13:38.148Z,102231.88
2022-08-08T12:16:49.426Z,102227.38
2022-08-08T12:19:57.624Z,102226.13
2022-08-08T12:23:00.463Z,102229.75
2022-08-08T12:26:09.694Z,102218.66
2022-08-08T12:29:40.579Z,102220.06
2022-08-08T12:32:46.410Z,102225.94
2022-08-08T12:35:52.852Z,102220.34
2022-08-08T12:38:55.891Z,102225.13
2022-08-08T12:42:01.475Z,102226.31
2022-08-08T12:45:53.508Z,102218.66
2022-08-08T12:48:38.095Z,102213.09
2022-08-08T12:51:42.186Z,102199.06
2022-08-08T12:55:09.462Z,102207.81
2022-08-08T12:58:19.773Z,102205.66
2022-08-08T13:01:36.869Z,102203.78
2022-08-08T13:04:51.223Z,102202.03
2022-08-08T13:08:03.094Z,102197.03
2022-08-08T13:11:18.594Z,102206.97
2022-08-08T13:14:21.252Z,102206.69
2022-08-08T13:18:09.078Z,102205.09
2022-08-08T13:20:50.541Z,102203.97
2022-08-08T13:23:56.021Z,102195.22
2022-08-08T13:27:02.874Z,102191.34
2022-08-08T13:30:07.433Z,102197.25
2022-08-08T13:33:11.979Z,102195.53
2022-08-08T13:36:26.057Z,102186.19
2022-08-08T13:39:29.325Z,102189.97
2022-08-08T13:42:32.511Z,102187.81
2022-08-08T13:45:36.782Z,102197.16
2022-08-08T13:49:12.182Z,102182.53
2022-08-08T13:52:23.145Z,102188.16
2022-08-08T13:55:38.667Z,102193.91
2022-08-08T13:58:57.234Z,102182.00
2022-08-08T14:02:07.567Z,102192.66
2022-08-08T14:05:22.038Z,102193.63
2022-08-08T14:08:30.432Z,102190.69
2022-08-08T14:11:37.745Z,102184.84
2022-08-08T14:14:42.870Z,102197.66
2022-08-08T14:17:59.072Z,102194.88
2022-08-08T14:21:21.091Z,102189.94
2022-08-08T14:24:31.539Z,102194.00
2022-08-08T14:27:36.221Z,102181.66
2022-08-08T14:30:40.253Z,102193.38
2022-08-08T14:33:54.957Z,102186.78
2022-08-08T14:36:59.109Z,102191.50
2022-08-08T14:40:06.093Z,102193.25
2022-08-08T14:43:31.120Z,102196.25
2022-08-08T14:46:33.085Z,102193.97
2022-08-08T14:49:51.495Z,102192.69
2022-08-08T14:53:03.516Z,102198.88
2022-08-08T14:56:07.553Z,102200.00
2022-08-08T14:59:22.204Z,102206.91
2022-08-08T15:02:35.707Z,102188.88
2022-08-08T15:05:43.197Z,102193.25
2022-08-08T15:08:58.762Z,102197.34
2022-08-08T15:12:01.545Z,102197.69
2022-08-08T15:15:09.187Z,102198.09
2022-08-08T15:18:12.274Z,102197.44
2022-08-08T15:21:14.914Z,102192.91
2022-08-08T15:24:20.022Z,102196.59
2022-08-08T15:28:04.079Z,102197.50
2022-08-08T15:30:48.814Z,102193.44
2022-08-08T15:33:59.055Z,102190.09
2022-08-08T15:37:05.690Z,102196.50
2022-08-08T15:40:11.165Z,102201.19
2022-08-08T15:43:35.401Z,102196.50
2022-08-08T15:46:39.114Z,102202.38
2022-08-08T15:49:48.921Z,102201.53
2022-08-08T15:52:52.577Z,102203.91
2022-08-08T15:55:57.150Z,102202.44
2022-08-08T15:59:01.790Z,102202.88
2022-08-08T16:02:08.907Z,102212.59
2022-08-08T16:05:15.841Z,102209.91
2022-08-08T16:08:20.293Z,102206.94
2022-08-08T16:13:09.378Z,102208.25
2022-08-08T16:14:53.630Z,102209.00
2022-08-08T16:18:06.759Z,102208.50
2022-08-08T16:21:26.071Z,102197.63
2022-08-08T16:24:29.820Z,102199.78
2022-08-08T16:27:35.309Z,102204.97
2022-08-08T16:30:40.442Z,102201.09
2022-08-08T16:33:57.956Z,102197.63
2022-08-08T16:37:01.965Z,102195.78
2022-08-08T16:40:07.168Z,102193.94
2022-08-08T16:43:11.393Z,102188.19
2022-08-08T16:46:43.196Z,102195.44
2022-08-08T16:49:38.673Z,102197.94
2022-08-08T16:55:23.146Z,102197.66
2022-08-08T16:56:08.856Z,102196.56
2022-08-08T16:59:18.389Z,102195.06
2022-08-08T17:02:38.624Z,102195.13
2022-08-08T17:05:45.215Z,102204.13
2022-08-08T17:08:48.081Z,102196.22
2022-08-08T17:11:55.556Z,102200.78
2022-08-08T17:15:17.242Z,102207.25
2022-08-08T17:18:24.995Z,102211.03
2022-08-08T17:21:27.647Z,102217.31
2022-08-08T17:24:34.729Z,102218.19
2022-08-08T17:27:46.612Z,102215.91
2022-08-08T17:30:51.402Z,102221.94
2022-08-08T17:34:48.199Z,102224.03
2022-08-08T17:37:28.946Z,102217.06
2022-08-08T17:40:35.859Z,102226.91
2022-08-08T17:44:00.608Z,102226.38
2022-08-08T17:47:04.109Z,102226.16
2022-08-08T17:50:07.856Z,102232.63
2022-08-08T17:53:12.267Z,102224.38
2022-08-08T17:56:14.878Z,102225.19
2022-08-08T17:59:19.089Z,102232.13
2022-08-08T18:02:29.181Z,102226.13
2022-08-08T18:05:48.786Z,102233.44
2022-08-08T18:08:55.409Z,102237.53
2022-08-08T18:11:59.461Z,102238.28
2022-08-08T18:15:02.958Z,102240.59
2022-08-08T18:18:29.537Z,102245.81
2022-08-08T18:22:01.285Z,102243.69
2022-08-08T18:24:57.058Z,102245.41
2022-08-08T18:27:59.659Z,102245.69
2022-08-08T18:31:06.883Z,102250.59
2022-08-08T18:34:25.912Z,102252.63
2022-08-08T18:37:47.791Z,102256.50
2022-08-08T18:40:51.251Z,102253.22
2022-08-08T18:43:56.795Z,102259.03
2022-08-08T18:46:59.395Z,102259.22
2022-08-08T18:50:04.094Z,102264.63
2022-08-08T18:53:06.989Z,102269.06
2022-08-08T18:56:20.981Z,102270.44
2022-08-08T18:59:24.571Z,102268.53
2022-08-08T19:02:36.927Z,102276.63
2022-08-08T19:05:52.117Z,102283.59
2022-08-08T19:08:54.725Z,102288.38
2022-08-08T19:11:57.336Z,102292.75
2022-08-08T19:15:00.290Z,102289.00
2022-08-08T19:18:31.795Z,102292.47
2022-08-08T19:21:47.835Z,102292.97
2022-08-08T19:25:05.728Z,102296.16
2022-08-08T19:28:17.709Z,102302.84
2022-08-08T19:31:22.851Z,102298.78
2022-08-08T19:34:39.035Z,102303.44
2022-08-08T19:37:47.030Z,102303.78
2022-08-08T19:40:56.254Z,102307.31
2022-08-08T19:44:02.966Z,102307.00
2022-08-08T19:47:07.222Z,102302.63
2022-08-08T19:50:14.880Z,102296.34
2022-08-08T19:53:52.075Z,102302.28
2022-08-08T19:56:41.763Z,102308.53
2022-08-08T19:59:51.776Z,102303.00
2022-08-08T20:02:54.400Z,102306.44
2022-08-08T20:06:15.656Z,102311.44
2022-08-08T20:09:22.863Z,102308.13
2022-08-08T20:12:32.634Z,102313.94
2022-08-08T20:15:52.641Z,102313.97
2022-08-08T20:19:01.486Z,102314.22
2022-08-08T20:22:05.093Z,102317.59
2022-08-08T20:25:20.415Z,102319.84
2022-08-08T20:28:32.318Z,102317.25
2022-08-08T20:32:02.829Z,102331.25
2022-08-08T20:35:00.617Z,102330.97
2022-08-08T20:38:03.698Z,102341.41
2022-08-08T20:41:17.258Z,102336.75
2022-08-08T20:44:21.806Z,102336.75
2022-08-08T20:47:36.617Z,102340.78
2022-08-08T20:50:42.019Z,102336.44
2022-08-08T20:53:59.888Z,102342.56
2022-08-08T20:57:17.198Z,102344.53
2022-08-08T21:00:23.550Z,102344.72
2022-08-08T21:03:29.910Z,102343.09
2022-08-08T21:06:53.046Z,102346.56
2022-08-08T21:10:07.775Z,102350.03
2022-08-08T21:13:16.275Z,102348.53
2022-08-08T21:16:20.784Z,102354.41
2022-08-08T21:19:44.076Z,102341.00
2022-08-08T21:22:48.665Z,102350.97
2022-08-08T21:25:53.321Z,102351.84
2022-08-08T21:29:00.957Z,102346.09
2022-08-08T21:32:07.649Z,102351.38
2022-08-08T21:36:19.183Z,102351.88
2022-08-08T21:38:39.780Z,102351.41
2022-08-08T21:41:53.816Z,102355.28
2022-08-08T21:45:44.502Z,102357.97
2022-08-08T21:48:35.193Z,102362.84
2022-08-08T21:52:09.766Z,102355.88
2022-08-08T21:55:24.206Z,102354.34
2022-08-08T21:58:37.264Z,102362.91
2022-08-08T22:01:43.064Z,102363.91
2022-08-08T22:04:45.726Z,102362.47
2022-08-08T22:07:49.828Z,102367.13
2022-08-08T22:10:54.046Z,102369.59
2022-08-08T22:13:57.273Z,102378.22
2022-08-08T22:17:02.529Z,102379.84
2022-08-08T22:20:11.108Z,102380.19
2022-08-08T22:23:18.443Z,102374.97
2022-08-08T22:26:26.897Z,102380.78
2022-08-08T22:30:01.141Z,102383.56
2022-08-08T22:32:56.775Z,102377.44
2022-08-08T22:36:04.697Z,102380.41
2022-08-08T22:39:19.779Z,102377.13
2022-08-08T22:42:27.046Z,102379.09
2022-08-08T22:45:30.439Z,102387.47
2022-08-08T22:48:34.435Z,102386.75
2022-08-08T22:51:46.020Z,102387.69
2022-08-08T22:54:58.810Z,102386.16
2022-08-08T22:58:07.215Z,102388.28
2022-08-08T23:01:26.659Z,102389.34
2022-08-08T23:04:36.390Z,102393.06
2022-08-08T23:07:51.310Z,102389.44
2022-08-08T23:11:06.455Z,102392.31
2022-08-08T23:14:16.088Z,102386.94
2022-08-08T23:17:18.894Z,102393.25
2022-08-08T23:20:27.453Z,102391.72
2022-08-08T23:23:31.422Z,102393.84
2022-08-08T23:26:34.529Z,102400.22
2022-08-08T23:29:38.097Z,102395.59
2022-08-08T23:32:44.014Z,102396.34
2022-08-08T23:36:07.332Z,102398.00
2022-08-08T23:39:10.931Z,102391.25
2022-08-08T23:42:13.554Z,102404.91
2022-08-08T23:45:16.174Z,102400.63
2022-08-08T23:49:00.269Z,102402.50
2022-08-08T23:52:05.860Z,102404.34
2022-08-08T23:55:14.053Z,102408.41
2022-08-08T23:58:32.016Z,102408.78
